Time;durP1;ratioP1;P1;durP2;ratioP2;P2;SDS_P1;SDS_P2;PMS_P1;PMS_P2;Temp;Humidity;BMP_temperature;BMP_pressure;BME280_temperature;BME280_humidity;BME280_pressure;Samples;Min_cycle;Max_cycle;Signal;HPM_P1;HPM_P2
2022/11/02 00:00:29;;;;;;;0.20;0.20;;;12.00;99.90;;;;;;5010534;28;20451;-91
2022/11/02 00:02:55;;;;;;;0.20;0.20;;;12.00;99.90;;;;;;5013164;28;20435;-90
2022/11/02 00:05:23;;;;;;;0.10;0.10;;;12.00;99.90;;;;;;5008632;28;20450;-90
2022/11/02 00:07:50;;;;;;;0.20;0.20;;;11.90;99.90;;;;;;4996355;28;20236;-93
2022/11/02 00:10:16;;;;;;;0.20;0.20;;;11.90;99.90;;;;;;5011582;28;20451;-91
2022/11/02 00:12:41;;;;;;;0.20;0.20;;;11.90;99.90;;;;;;5012932;28;20447;-91
2022/11/02 00:15:08;;;;;;;0.13;0.13;;;11.90;99.90;;;;;;4984473;28;20211;-92
2022/11/02 00:17:34;;;;;;;0.20;0.20;;;11.90;99.90;;;;;;4996670;28;20208;-91
2022/11/02 00:20:01;;;;;;;0.20;0.20;;;11.90;99.90;;;;;;5008154;28;21122;-89
2022/11/02 00:22:26;;;;;;;0.10;0.10;;;11.80;99.90;;;;;;5009596;28;20459;-90
2022/11/02 00:24:52;;;;;;;0.10;0.10;;;11.80;99.90;;;;;;5010465;28;20778;-93
2022/11/02 00:27:18;;;;;;;0.10;0.10;;;11.70;99.90;;;;;;5007708;28;20563;-87
2022/11/02 00:29:43;;;;;;;0.20;0.20;;;11.70;99.90;;;;;;5008220;28;20285;-91
2022/11/02 00:32:09;;;;;;;0.20;0.20;;;11.70;99.90;;;;;;5007126;28;20242;-90
2022/11/02 00:34:34;;;;;;;0.20;0.20;;;11.70;99.90;;;;;;5009946;28;20196;-89
2022/11/02 00:37:00;;;;;;;0.20;0.20;;;11.70;99.90;;;;;;5009948;28;20193;-90
2022/11/02 00:39:25;;;;;;;0.20;0.20;;;11.70;99.90;;;;;;5003244;28;20205;-93
2022/11/02 00:41:51;;;;;;;0.20;0.20;;;11.70;99.90;;;;;;5012284;28;20184;-90
2022/11/02 00:44:17;;;;;;;0.20;0.20;;;11.60;99.90;;;;;;5008952;28;20188;-89
2022/11/02 00:46:42;;;;;;;0.20;0.20;;;11.60;99.90;;;;;;5011543;28;20431;-93
2022/11/02 00:49:08;;;;;;;0.10;0.10;;;11.60;99.90;;;;;;5012200;28;20608;-94
2022/11/02 00:51:33;;;;;;;0.20;0.20;;;11.60;99.90;;;;;;5010079;28;20192;-92
2022/11/02 00:53:59;;;;;;;0.20;0.20;;;11.60;99.90;;;;;;5007581;28;20206;-88
2022/11/02 00:56:24;;;;;;;0.20;0.20;;;11.50;99.90;;;;;;5013317;28;20196;-92
2022/11/02 00:58:50;;;;;;;0.10;0.10;;;11.50;99.90;;;;;;4994453;28;20200;-91
2022/11/02 01:01:15;;;;;;;0.20;0.20;;;11.40;99.90;;;;;;4992530;28;20262;-91
2022/11/02 01:03:41;;;;;;;0.20;0.20;;;11.40;99.90;;;;;;4990237;28;20185;-92
2022/11/02 01:06:11;;;;;;;0.20;0.20;;;11.40;99.90;;;;;;5000705;28;20239;-92
2022/11/02 01:08:37;;;;;;;0.20;0.20;;;11.40;99.90;;;;;;4996785;28;20215;-90
2022/11/02 01:11:15;;;;;;;0.20;0.20;;;11.40;99.90;;;;;;5007049;28;20539;-94
2022/11/02 01:13:41;;;;;;;0.20;0.20;;;11.40;99.90;;;;;;5004847;28;20223;-90
2022/11/02 01:16:07;;;;;;;0.20;0.20;;;11.30;99.90;;;;;;5010539;28;20439;-92
2022/11/02 01:18:33;;;;;;;0.20;0.20;;;11.30;99.90;;;;;;5005268;28;21017;-92
2022/11/02 01:20:59;;;;;;;0.20;0.20;;;11.30;99.90;;;;;;5007790;28;20427;-92
2022/11/02 01:23:24;;;;;;;0.10;0.10;;;11.30;99.90;;;;;;5004977;28;20675;-92
2022/11/02 01:25:50;;;;;;;0.20;0.20;;;11.30;99.90;;;;;;4992475;28;20195;-94
2022/11/02 01:28:16;;;;;;;0.20;0.20;;;11.30;99.90;;;;;;4988027;28;20211;-91
2022/11/02 01:30:42;;;;;;;0.20;0.20;;;11.30;99.90;;;;;;5008961;28;20802;-93
2022/11/02 01:33:07;;;;;;;0.20;0.20;;;11.30;99.90;;;;;;5012536;28;20180;-94
2022/11/02 01:35:35;;;;;;;0.20;0.20;;;11.30;99.90;;;;;;4981570;28;20223;-93
2022/11/02 01:38:00;;;;;;;0.20;0.20;;;11.30;99.90;;;;;;5011754;28;20266;-90
2022/11/02 01:40:26;;;;;;;0.20;0.20;;;11.30;99.90;;;;;;5011786;28;20542;-90
2022/11/02 01:42:52;;;;;;;0.20;0.20;;;11.30;99.90;;;;;;5010902;28;20244;-89
2022/11/02 01:45:17;;;;;;;0.20;0.20;;;11.30;99.90;;;;;;4999343;28;20320;-92
2022/11/02 01:47:47;;;;;;;0.20;0.20;;;11.40;99.90;;;;;;5010257;28;20208;-92
2022/11/02 01:50:18;;;;;;;0.20;0.20;;;11.40;99.90;;;;;;5005671;28;20246;-92
2022/11/02 01:52:43;;;;;;;0.20;0.20;;;11.40;99.90;;;;;;5008339;28;20454;-90
2022/11/02 01:55:13;;;;;;;0.20;0.20;;;11.40;99.90;;;;;;4991505;28;20967;-92
2022/11/02 01:57:42;;;;;;;0.20;0.20;;;11.40;99.90;;;;;;4990808;28;20192;-92
2022/11/02 02:00:13;;;;;;;0.20;0.20;;;11.40;99.90;;;;;;5003247;28;20435;-91
2022/11/02 02:02:50;;;;;;;0.20;0.20;;;11.50;99.90;;;;;;4999326;28;20480;-91
2022/11/02 02:05:17;;;;;;;0.20;0.20;;;11.50;99.90;;;;;;5011100;28;20530;-89
2022/11/02 02:07:43;;;;;;;0.20;0.20;;;11.50;99.90;;;;;;5010909;28;20521;-90
2022/11/02 02:10:09;;;;;;;0.20;0.20;;;11.50;99.90;;;;;;5010908;28;20428;-91
2022/11/02 02:12:37;;;;;;;0.10;0.10;;;11.60;99.90;;;;;;4994248;28;20807;-91
2022/11/02 02:15:02;;;;;;;0.20;0.20;;;11.60;99.90;;;;;;5002542;28;20215;-91
2022/11/02 02:17:38;;;;;;;0.20;0.20;;;11.60;99.90;;;;;;5006613;28;20467;-92
2022/11/02 02:20:16;;;;;;;0.20;0.20;;;11.60;99.90;;;;;;4999090;28;20188;-89
2022/11/02 02:23:12;;;;;;;0.20;0.20;;;11.70;99.90;;;;;;5005374;28;20450;-92
2022/11/02 02:26:07;;;;;;;0.20;0.20;;;11.70;99.90;;;;;;4992298;28;20988;-89
2022/11/02 02:28:46;;;;;;;0.17;0.17;;;11.70;99.90;;;;;;5009240;28;20986;-92
2022/11/02 02:31:37;;;;;;;0.20;0.20;;;11.70;99.90;;;;;;4991201;28;20438;-92
2022/11/02 02:34:17;;;;;;;0.20;0.20;;;11.70;99.90;;;;;;5004350;28;20448;-91
2022/11/02 02:36:46;;;;;;;0.10;0.10;;;11.70;99.90;;;;;;5007429;28;20451;-89
2022/11/02 02:39:19;;;;;;;0.20;0.20;;;11.60;99.90;;;;;;4992789;28;20986;-90
2022/11/02 02:42:05;;;;;;;0.20;0.20;;;11.50;99.90;;;;;;5009661;28;20450;-91
2022/11/02 02:44:36;;;;;;;0.20;0.20;;;11.40;99.90;;;;;;5006567;28;20978;-89
2022/11/02 02:47:08;;;;;;;0.20;0.20;;;11.30;99.90;;;;;;5002398;28;20441;-91
2022/11/02 02:49:46;;;;;;;0.20;0.20;;;11.20;99.90;;;;;;5009342;28;20506;-90
2022/11/02 02:52:12;;;;;;;0.20;0.20;;;11.10;99.90;;;;;;4991026;28;20486;-91
2022/11/02 02:54:41;;;;;;;0.20;0.20;;;11.00;99.90;;;;;;5003878;28;20455;-90
2022/11/02 02:57:14;;;;;;;0.20;0.20;;;11.00;99.90;;;;;;5006160;28;20447;-89
2022/11/02 02:59:47;;;;;;;0.20;0.20;;;10.90;99.90;;;;;;4992898;28;20447;-89
2022/11/02 03:02:21;;;;;;;0.20;0.20;;;10.80;99.90;;;;;;4990707;28;20947;-91
2022/11/02 03:04:47;;;;;;;0.20;0.20;;;10.90;99.90;;;;;;4993999;28;20462;-90
2022/11/02 03:07:18;;;;;;;0.20;0.20;;;10.80;99.90;;;;;;4999920;28;20484;-90
2022/11/02 03:10:17;;;;;;;0.20;0.20;;;10.80;99.90;;;;;;5012146;28;20198;-91
2022/11/02 03:12:58;;;;;;;0.20;0.20;;;10.80;99.90;;;;;;4967765;28;20428;-85
2022/11/02 03:15:25;;;;;;;0.20;0.20;;;10.90;99.90;;;;;;5012201;28;20466;-91
2022/11/02 03:18:14;;;;;;;0.20;0.20;;;10.90;99.90;;;;;;4991936;28;20440;-90
2022/11/02 03:20:55;;;;;;;0.20;0.20;;;10.90;99.90;;;;;;5002142;28;20927;-88
2022/11/02 03:23:26;;;;;;;0.20;0.20;;;10.80;99.90;;;;;;4994726;28;20509;-89
2022/11/02 03:26:13;;;;;;;0.20;0.20;;;10.80;99.90;;;;;;5010491;28;20443;-89
2022/11/02 03:28:53;;;;;;;0.20;0.20;;;10.80;99.90;;;;;;5010445;28;20477;-92
2022/11/02 03:31:24;;;;;;;0.20;0.20;;;10.80;99.90;;;;;;5009868;28;20431;-88
2022/11/02 03:34:02;;;;;;;0.20;0.20;;;10.80;99.90;;;;;;5008247;28;20455;-88
2022/11/02 03:36:35;;;;;;;0.20;0.20;;;10.80;99.90;;;;;;5003270;28;20467;-87
2022/11/02 03:39:07;;;;;;;0.20;0.20;;;10.70;99.90;;;;;;5009063;28;20450;-89
2022/11/02 03:41:35;;;;;;;0.20;0.20;;;10.70;99.90;;;;;;5011679;28;20439;-90
2022/11/02 03:44:07;;;;;;;0.20;0.20;;;10.70;99.90;;;;;;5013377;28;20554;-95
2022/11/02 03:46:36;;;;;;;0.20;0.20;;;10.70;99.90;;;;;;5011657;28;20509;-89
2022/11/02 03:49:06;;;;;;;0.20;0.20;;;10.70;99.90;;;;;;4994381;28;20475;-92
2022/11/02 03:51:35;;;;;;;0.20;0.20;;;10.70;99.90;;;;;;5014075;28;20416;-90
2022/11/02 03:54:14;;;;;;;0.20;0.20;;;10.70;99.90;;;;;;5013161;28;20497;-87
2022/11/02 03:56:45;;;;;;;0.20;0.20;;;10.70;99.90;;;;;;5011247;28;20431;-94
2022/11/02 03:59:12;;;;;;;0.20;0.20;;;10.70;99.90;;;;;;5010120;28;21638;-93
2022/11/02 04:01:46;;;;;;;0.20;0.20;;;10.70;99.90;;;;;;5013035;28;20462;-93
2022/11/02 04:04:12;;;;;;;0.20;0.20;;;10.70;99.90;;;;;;5007928;28;20452;-92
2022/11/02 04:06:40;;;;;;;0.20;0.20;;;10.70;99.90;;;;;;4981370;28;20483;-92
2022/11/02 04:09:05;;;;;;;0.20;0.20;;;10.70;99.90;;;;;;4994819;28;20278;-92
2022/11/02 04:19:44;;;;;;;0.20;0.20;;;10.80;99.90;;;;;;5012601;28;20485;-90
2022/11/02 04:25:19;;;;;;;0.20;0.20;;;10.80;99.90;;;;;;4957666;28;20213;-86
2022/11/02 04:27:48;;;;;;;0.20;0.20;;;10.90;99.90;;;;;;4990945;28;20737;-89
2022/11/02 04:30:21;;;;;;;0.20;0.20;;;10.90;99.90;;;;;;4995860;28;20478;-92
2022/11/02 04:35:34;;;;;;;0.20;0.20;;;10.80;99.90;;;;;;5005964;28;21157;-91
2022/11/02 04:40:45;;;;;;;0.20;0.20;;;10.70;99.90;;;;;;5011513;28;20816;-92
2022/11/02 04:43:10;;;;;;;0.20;0.20;;;10.80;99.90;;;;;;4994586;28;20435;-92
2022/11/02 04:45:36;;;;;;;0.20;0.20;;;10.80;99.90;;;;;;5008284;28;20204;-91
2022/11/02 04:48:07;;;;;;;0.20;0.20;;;10.80;99.90;;;;;;5003386;28;20592;-88
2022/11/02 04:50:33;;;;;;;0.20;0.20;;;10.80;99.90;;;;;;4993533;28;20912;-92
2022/11/02 04:53:01;;;;;;;0.20;0.20;;;10.80;99.90;;;;;;5012070;28;20488;-92
2022/11/02 04:55:27;;;;;;;0.20;0.20;;;10.80;99.90;;;;;;5003752;28;20554;-89
2022/11/02 04:57:53;;;;;;;0.20;0.20;;;10.90;99.90;;;;;;5006487;28;20448;-92
2022/11/02 05:00:19;;;;;;;0.20;0.20;;;10.90;99.90;;;;;;5008496;28;20512;-95
2022/11/02 05:02:49;;;;;;;0.20;0.20;;;10.90;99.90;;;;;;5013505;28;20364;-92
2022/11/02 05:05:16;;;;;;;0.20;0.20;;;10.90;99.90;;;;;;5010385;28;20440;-92
2022/11/02 05:07:42;;;;;;;0.20;0.20;;;10.90;99.90;;;;;;5011588;28;20705;-91
2022/11/02 05:10:08;;;;;;;0.20;0.20;;;10.90;99.90;;;;;;5011820;28;20539;-90
2022/11/02 05:12:34;;;;;;;0.20;0.20;;;10.90;99.90;;;;;;5006824;28;21027;-90
2022/11/02 05:14:59;;;;;;;0.20;0.20;;;10.90;99.90;;;;;;5008946;28;20526;-92
2022/11/02 05:17:25;;;;;;;0.20;0.20;;;10.90;99.90;;;;;;4993730;28;20192;-93
2022/11/02 05:19:50;;;;;;;0.20;0.20;;;10.90;99.90;;;;;;5007708;28;20199;-92
2022/11/02 05:22:16;;;;;;;0.20;0.20;;;10.90;99.90;;;;;;5000875;28;20321;-91
2022/11/02 05:24:41;;;;;;;0.20;0.20;;;10.90;99.90;;;;;;5000857;28;20643;-90
2022/11/02 05:27:08;;;;;;;0.20;0.20;;;10.90;99.90;;;;;;5026536;28;20185;-93
2022/11/02 05:29:34;;;;;;;0.20;0.20;;;10.90;99.90;;;;;;5011877;28;20243;-92
2022/11/02 05:31:59;;;;;;;0.20;0.20;;;10.90;99.90;;;;;;5004744;28;20443;-90
2022/11/02 05:34:25;;;;;;;0.20;0.20;;;10.90;99.90;;;;;;5008604;28;20629;-92
2022/11/02 05:36:50;;;;;;;0.20;0.20;;;10.80;99.90;;;;;;5007101;28;20184;-89
2022/11/02 05:39:16;;;;;;;0.20;0.20;;;10.90;99.90;;;;;;5011083;28;20688;-89
2022/11/02 05:41:41;;;;;;;0.20;0.20;;;10.80;99.90;;;;;;4993075;28;20719;-89
2022/11/02 05:44:07;;;;;;;0.20;0.20;;;10.90;99.90;;;;;;5008240;28;20256;-89
2022/11/02 05:46:33;;;;;;;0.20;0.20;;;10.90;99.90;;;;;;5000912;28;20197;-92
2022/11/02 05:48:58;;;;;;;0.20;0.20;;;10.90;99.90;;;;;;5001463;28;20302;-91
2022/11/02 05:51:24;;;;;;;0.20;0.20;;;10.90;99.90;;;;;;5008425;28;20276;-90
2022/11/02 05:53:49;;;;;;;0.20;0.20;;;10.80;99.90;;;;;;5011691;28;20184;-91
2022/11/02 05:56:15;;;;;;;0.20;0.20;;;10.80;99.90;;;;;;4990361;28;20239;-90
2022/11/02 05:58:40;;;;;;;0.20;0.20;;;10.90;99.90;;;;;;5009857;28;20268;-94
2022/11/02 06:01:07;;;;;;;0.20;0.20;;;10.80;99.90;;;;;;5005038;28;20723;-90
2022/11/02 06:03:33;;;;;;;0.20;0.20;;;10.80;99.90;;;;;;4990624;28;20200;-92
2022/11/02 06:06:00;;;;;;;0.20;0.20;;;10.80;99.90;;;;;;5005535;28;20436;-90
2022/11/02 06:08:26;;;;;;;0.20;0.20;;;10.70;99.90;;;;;;5013133;28;20568;-93
2022/11/02 06:10:52;;;;;;;0.20;0.20;;;10.70;99.90;;;;;;5001456;28;20451;-91
2022/11/02 06:13:18;;;;;;;0.20;0.20;;;10.70;99.90;;;;;;5000682;28;20509;-94
2022/11/02 06:15:44;;;;;;;0.20;0.20;;;10.80;99.90;;;;;;5008179;28;20450;-89
2022/11/02 06:18:09;;;;;;;0.20;0.20;;;10.80;99.90;;;;;;5011640;28;20324;-90
2022/11/02 06:20:35;;;;;;;0.20;0.20;;;10.80;99.90;;;;;;5008917;28;20185;-90
2022/11/02 06:23:00;;;;;;;0.20;0.20;;;10.80;99.90;;;;;;5012609;28;20192;-90
2022/11/02 06:25:26;;;;;;;0.20;0.20;;;10.80;99.90;;;;;;5009495;28;20192;-93
2022/11/02 06:27:54;;;;;;;0.20;0.20;;;10.80;99.90;;;;;;5007628;28;20623;-91
2022/11/02 06:30:20;;;;;;;0.20;0.20;;;10.80;99.90;;;;;;5005180;28;20260;-93
2022/11/02 06:32:48;;;;;;;0.20;0.20;;;10.80;99.90;;;;;;5007026;28;20434;-92
2022/11/02 06:35:16;;;;;;;0.20;0.20;;;10.80;99.90;;;;;;5009668;28;20224;-92
2022/11/02 06:37:41;;;;;;;0.20;0.20;;;10.80;99.90;;;;;;5005885;28;20423;-93
2022/11/02 06:40:07;;;;;;;0.20;0.20;;;10.90;99.90;;;;;;5010609;28;20509;-90
2022/11/02 06:42:33;;;;;;;0.20;0.20;;;10.90;99.90;;;;;;4996956;28;20188;-93
2022/11/02 06:45:01;;;;;;;0.20;0.20;;;10.90;99.90;;;;;;5011060;28;20642;-91
2022/11/02 06:47:32;;;;;;;0.20;0.20;;;11.00;99.90;;;;;;5004838;28;20207;-92
2022/11/02 06:49:59;;;;;;;0.20;0.20;;;11.00;99.90;;;;;;5009116;28;20465;-94
2022/11/02 06:52:26;;;;;;;0.20;0.20;;;11.10;99.90;;;;;;4997094;28;20435;-91
2022/11/02 06:54:51;;;;;;;0.20;0.20;;;11.10;99.90;;;;;;5012314;28;20511;-92
2022/11/02 06:57:17;;;;;;;0.20;0.20;;;11.10;99.90;;;;;;5015567;28;20450;-92
2022/11/02 06:59:42;;;;;;;0.20;0.20;;;11.10;99.90;;;;;;5004441;28;20672;-92
2022/11/02 07:02:08;;;;;;;0.20;0.20;;;11.10;99.90;;;;;;5026210;28;20193;-93
2022/11/02 07:04:34;;;;;;;0.20;0.20;;;11.10;99.90;;;;;;5029771;28;20644;-93
2022/11/02 07:06:59;;;;;;;0.20;0.20;;;11.10;99.90;;;;;;5011040;28;20598;-90
2022/11/02 07:09:25;;;;;;;0.20;0.20;;;11.20;99.90;;;;;;5008348;28;20233;-90
2022/11/02 07:11:50;;;;;;;0.20;0.20;;;11.20;99.90;;;;;;5016370;28;20196;-93
2022/11/02 07:14:16;;;;;;;0.20;0.20;;;11.20;99.90;;;;;;5009628;28;20189;-92
2022/11/02 07:16:41;;;;;;;0.20;0.20;;;11.30;99.90;;;;;;5010464;28;20176;-93
2022/11/02 07:19:07;;;;;;;0.20;0.20;;;11.30;99.90;;;;;;5013162;28;20214;-91
2022/11/02 07:21:32;;;;;;;0.20;0.20;;;11.20;99.90;;;;;;4999798;28;20177;-85
2022/11/02 07:23:58;;;;;;;0.20;0.20;;;11.20;99.90;;;;;;5008843;28;20216;-93
2022/11/02 07:26:24;;;;;;;0.20;0.20;;;11.30;99.90;;;;;;5011910;28;20633;-90
2022/11/02 07:28:50;;;;;;;0.20;0.20;;;11.40;99.90;;;;;;5001868;28;20663;-87
2022/11/02 07:31:15;;;;;;;0.20;0.20;;;11.40;99.90;;;;;;4993818;28;20527;-92
2022/11/02 07:33:41;;;;;;;0.20;0.20;;;11.50;99.90;;;;;;5010082;28;20235;-86
2022/11/02 07:36:07;;;;;;;0.20;0.20;;;11.50;99.90;;;;;;4995971;28;20704;-93
2022/11/02 07:38:32;;;;;;;0.20;0.20;;;11.50;99.90;;;;;;5023542;28;20193;-88
2022/11/02 07:40:58;;;;;;;0.20;0.20;;;11.50;99.90;;;;;;5004561;28;20188;-92
2022/11/02 07:43:23;;;;;;;0.20;0.20;;;11.40;99.90;;;;;;4994315;28;20618;-91
2022/11/02 07:45:49;;;;;;;0.20;0.20;;;11.50;99.90;;;;;;5009010;28;20176;-93
2022/11/02 07:48:14;;;;;;;0.20;0.20;;;11.60;99.90;;;;;;5005592;28;20243;-94
2022/11/02 07:50:40;;;;;;;0.20;0.20;;;11.60;99.90;;;;;;5007975;28;20202;-94
2022/11/02 07:53:05;;;;;;;0.20;0.20;;;11.60;99.90;;;;;;5012957;28;20180;-92
2022/11/02 07:55:31;;;;;;;0.20;0.20;;;11.60;99.90;;;;;;5015744;28;20328;-93
2022/11/02 07:57:58;;;;;;;0.20;0.20;;;11.60;99.90;;;;;;5008754;28;20211;-93
2022/11/02 08:00:25;;;;;;;0.20;0.20;;;11.60;99.90;;;;;;5015693;28;20784;-94
2022/11/02 08:02:58;;;;;;;0.20;0.20;;;11.70;99.90;;;;;;5124419;23;20491;-94
2022/11/02 08:05:24;;;;;;;0.20;0.20;;;11.70;99.90;;;;;;5028990;28;20443;-93
2022/11/02 08:08:00;;;;;;;0.20;0.20;;;11.80;99.90;;;;;;5033726;28;20479;-94
2022/11/02 08:10:27;;;;;;;0.20;0.20;;;12.00;99.90;;;;;;5013024;28;20458;-94
2022/11/02 08:12:54;;;;;;;0.20;0.20;;;12.10;99.90;;;;;;5022041;28;20439;-93
2022/11/02 08:15:19;;;;;;;0.20;0.20;;;12.20;99.90;;;;;;5025556;28;21029;-94
2022/11/02 08:17:45;;;;;;;0.20;0.20;;;12.30;99.90;;;;;;5060610;22;20482;-95
2022/11/02 08:20:11;;;;;;;0.20;0.20;;;12.40;99.90;;;;;;5024852;28;21076;-95
2022/11/02 08:22:40;;;;;;;0.20;0.20;;;12.50;99.90;;;;;;5021545;28;20180;-93
2022/11/02 08:25:07;;;;;;;0.10;0.10;;;12.50;99.90;;;;;;5004245;28;20221;-91
2022/11/02 08:27:33;;;;;;;0.20;0.20;;;12.60;99.90;;;;;;5009164;28;20452;-95
2022/11/02 08:29:58;;;;;;;0.20;0.20;;;12.40;99.90;;;;;;5012644;28;20448;-94
2022/11/02 08:32:24;;;;;;;0.10;0.10;;;12.40;99.90;;;;;;5018315;28;20533;-94
2022/11/02 08:34:49;;;;;;;0.20;0.20;;;12.40;99.90;;;;;;5018158;28;20198;-94
2022/11/02 08:37:15;;;;;;;0.20;0.20;;;12.40;99.90;;;;;;4996787;28;20280;-91
2022/11/02 08:39:40;;;;;;;0.10;0.10;;;12.50;99.90;;;;;;5006192;28;20200;-92
2022/11/02 08:42:06;;;;;;;0.10;0.10;;;12.50;99.90;;;;;;4999483;28;20185;-94
2022/11/02 08:44:31;;;;;;;0.10;0.10;;;12.40;99.90;;;;;;5013116;28;20649;-88
2022/11/02 08:46:57;;;;;;;0.20;0.20;;;12.30;99.90;;;;;;5009868;28;20192;-94
2022/11/02 08:49:23;;;;;;;0.20;0.20;;;12.40;99.90;;;;;;5014333;28;20228;-92
2022/11/02 08:51:48;;;;;;;0.20;0.20;;;12.50;99.90;;;;;;5021749;28;20200;-94
2022/11/02 08:54:14;;;;;;;0.20;0.20;;;12.70;99.90;;;;;;5023332;28;20183;-94
2022/11/02 08:56:40;;;;;;;0.20;0.20;;;13.00;99.90;;;;;;5014837;28;20209;-93
2022/11/02 08:59:06;;;;;;;0.10;0.10;;;13.20;99.90;;;;;;5128171;23;20319;-94
2022/11/02 09:01:31;;;;;;;0.10;0.10;;;13.50;99.90;;;;;;5014637;28;20184;-90
2022/11/02 09:03:57;;;;;;;0.10;0.10;;;13.30;99.90;;;;;;5000166;28;20201;-92
2022/11/02 09:06:22;;;;;;;0.10;0.10;;;13.00;99.90;;;;;;4994444;28;20188;-93
2022/11/02 09:08:48;;;;;;;0.10;0.10;;;12.80;99.90;;;;;;5016444;28;20212;-92
2022/11/02 09:11:13;;;;;;;0.20;0.20;;;12.60;99.90;;;;;;5014739;28;20196;-90
2022/11/02 09:13:39;;;;;;;0.20;0.20;;;12.40;99.90;;;;;;5008790;28;20199;-92
2022/11/02 09:16:05;;;;;;;0.20;0.20;;;12.30;99.90;;;;;;5012469;28;20287;-92
2022/11/02 09:18:31;;;;;;;0.20;0.20;;;12.30;99.90;;;;;;5007199;28;20215;-90
2022/11/02 09:21:00;;;;;;;0.20;0.20;;;12.20;99.90;;;;;;4991239;28;21140;-91
2022/11/02 09:23:26;;;;;;;0.20;0.20;;;12.30;99.90;;;;;;5014644;28;20184;-92
2022/11/02 09:25:52;;;;;;;0.10;0.10;;;12.30;99.90;;;;;;5019597;28;20509;-93
2022/11/02 09:28:18;;;;;;;0.10;0.10;;;12.50;99.90;;;;;;5020746;28;20239;-93
2022/11/02 09:30:44;;;;;;;0.20;0.20;;;12.60;99.90;;;;;;5089532;22;20498;-94
2022/11/02 09:33:10;;;;;;;0.10;0.10;;;12.60;99.90;;;;;;5024668;28;20196;-94
2022/11/02 09:35:40;;;;;;;0.10;0.10;;;12.70;99.90;;;;;;5021178;28;20919;-95
2022/11/02 09:38:06;;;;;;;0.10;0.10;;;12.60;99.90;;;;;;4988338;28;20440;-92
2022/11/02 09:40:48;;;;;;;0.20;0.20;;;12.50;99.90;;;;;;5020994;28;20493;-95
2022/11/02 09:43:44;;;;;;;0.10;0.10;;;12.40;99.90;;;;;;5017398;28;20957;-94
2022/11/02 09:46:12;;;;;;;0.20;0.20;;;12.20;99.90;;;;;;4996286;28;20502;-90
2022/11/02 09:49:15;;;;;;;0.17;0.17;;;12.10;99.90;;;;;;5007749;28;20538;-93
2022/11/02 09:51:46;;;;;;;0.20;0.20;;;11.90;99.90;;;;;;4957402;29;20446;-95
2022/11/02 09:54:42;;;;;;;0.20;0.20;;;11.90;99.90;;;;;;4995879;28;20452;-95
2022/11/02 09:57:23;;;;;;;0.20;0.20;;;11.80;99.90;;;;;;5019795;28;20471;-96
2022/11/02 09:59:49;;;;;;;0.20;0.20;;;11.80;99.90;;;;;;5003082;28;20451;-89
2022/11/02 10:02:14;;;;;;;0.20;0.20;;;11.70;99.90;;;;;;4995372;28;20442;-93
2022/11/02 10:05:17;;;;;;;0.20;0.20;;;11.70;99.90;;;;;;5014897;28;20181;-93
2022/11/02 10:08:21;;;;;;;0.20;0.20;;;11.60;99.90;;;;;;5011545;28;20251;-94
2022/11/02 10:11:00;;;;;;;0.20;0.20;;;11.80;99.90;;;;;;4988158;28;20450;-95
2022/11/02 10:13:58;;;;;;;0.20;0.20;;;12.00;99.90;;;;;;5017865;28;20439;-94
2022/11/02 10:16:36;;;;;;;0.20;0.20;;;11.90;99.90;;;;;;5014982;28;20487;-95
2022/11/02 10:19:08;;;;;;;0.20;0.20;;;11.80;99.90;;;;;;5020045;28;20446;-94
2022/11/02 10:21:37;;;;;;;0.20;0.20;;;11.80;99.90;;;;;;5003875;28;20946;-92
2022/11/02 10:24:13;;;;;;;0.20;0.20;;;11.80;99.90;;;;;;4987079;28;20436;-94
2022/11/02 10:26:42;;;;;;;0.20;0.20;;;11.80;99.90;;;;;;5005469;28;20446;-94
2022/11/02 10:29:13;;;;;;;0.20;0.20;;;11.80;99.90;;;;;;5022313;28;20570;-95
2022/11/02 10:31:39;;;;;;;0.20;0.20;;;11.70;99.90;;;;;;4998324;28;20622;-95
2022/11/02 10:34:19;;;;;;;0.20;0.20;;;11.50;99.90;;;;;;5029509;28;20585;-95
2022/11/02 10:37:09;;;;;;;0.20;0.20;;;11.40;99.90;;;;;;5023548;28;20197;-95
2022/11/02 10:40:00;;;;;;;0.20;0.20;;;11.50;99.90;;;;;;5011257;28;20451;-94
2022/11/02 10:42:51;;;;;;;0.20;0.20;;;11.70;99.90;;;;;;5014330;28;20557;-95
2022/11/02 10:45:48;;;;;;;0.20;0.20;;;11.80;99.90;;;;;;5025604;28;20438;-95
2022/11/02 10:51:08;;;;;;;0.20;0.20;;;13.20;99.90;;;;;;5047727;23;20571;-95
2022/11/02 10:53:48;;;;;;;0.20;0.20;;;13.50;99.90;;;;;;5024814;28;20442;-94
2022/11/02 10:56:23;;;;;;;0.10;0.10;;;13.60;99.90;;;;;;5041163;28;20464;-93
2022/11/02 10:58:58;;;;;;;0.10;0.10;;;13.80;99.90;;;;;;5043074;28;20495;-95
2022/11/02 11:01:24;;;;;;;0.10;0.10;;;13.30;99.90;;;;;;5028326;28;20536;-94
2022/11/02 11:03:59;;;;;;;0.20;0.20;;;13.00;99.90;;;;;;5045069;28;20434;-94
2022/11/02 11:06:39;;;;;;;0.20;0.20;;;12.70;99.90;;;;;;5040287;28;20446;-94
2022/11/02 11:09:23;;;;;;;0.20;0.20;;;12.60;99.90;;;;;;5039023;23;20593;-93
2022/11/02 11:11:58;;;;;;;0.20;0.20;;;12.50;99.90;;;;;;5041706;28;20488;-94
2022/11/02 11:14:27;;;;;;;0.20;0.20;;;12.50;99.90;;;;;;5037829;28;20433;-89
2022/11/02 11:16:55;;;;;;;0.20;0.20;;;12.40;99.90;;;;;;5032419;28;20476;-86
2022/11/02 11:19:21;;;;;;;0.20;0.20;;;12.40;99.90;;;;;;5026916;28;20530;-85
2022/11/02 11:21:50;;;;;;;0.10;0.10;;;12.20;99.90;;;;;;5012539;28;20541;-84
2022/11/02 11:24:27;;;;;;;0.20;0.20;;;12.00;99.90;;;;;;5027236;28;20215;-84
2022/11/02 11:27:04;;;;;;;0.20;0.20;;;11.80;99.90;;;;;;5032859;28;20452;-87
2022/11/02 11:29:36;;;;;;;0.20;0.20;;;11.70;99.90;;;;;;5018286;28;20493;-86
2022/11/02 11:32:03;;;;;;;0.20;0.20;;;11.70;99.90;;;;;;5018726;28;20551;-86
2022/11/02 11:34:31;;;;;;;0.20;0.20;;;11.70;99.90;;;;;;5027795;28;20975;-87
2022/11/02 11:37:05;;;;;;;0.20;0.20;;;11.50;99.90;;;;;;5028567;28;20677;-87
2022/11/02 11:39:32;;;;;;;0.20;0.20;;;11.40;99.90;;;;;;5018836;28;20438;-87
2022/11/02 11:41:59;;;;;;;0.20;0.20;;;11.40;99.90;;;;;;5000032;28;20899;-87
2022/11/02 11:44:25;;;;;;;0.20;0.20;;;11.30;99.90;;;;;;5010507;28;20534;-85
2022/11/02 11:46:55;;;;;;;0.20;0.20;;;11.30;99.90;;;;;;5020170;28;20465;-84
2022/11/02 11:49:29;;;;;;;0.20;0.20;;;11.20;99.90;;;;;;5012159;28;20489;-87
2022/11/02 11:51:56;;;;;;;0.20;0.20;;;11.00;99.90;;;;;;5013438;28;20434;-91
2022/11/02 11:54:30;;;;;;;0.20;0.20;;;10.80;99.90;;;;;;5015681;28;20485;-94
2022/11/02 11:57:17;;;;;;;0.20;0.20;;;10.50;99.90;;;;;;5028934;28;20789;-89
2022/11/02 11:59:42;;;;;;;0.20;0.20;;;10.40;99.90;;;;;;5009496;28;20450;-91
2022/11/02 12:02:23;;;;;;;0.20;0.20;;;10.30;99.90;;;;;;5022276;28;20987;-95
2022/11/02 12:04:48;;;;;;;0.20;0.20;;;10.30;99.90;;;;;;5024813;28;20269;-88
2022/11/02 12:07:51;;;;;;;0.20;0.20;;;10.30;99.90;;;;;;5034376;28;20584;-90
2022/11/02 12:10:39;;;;;;;0.20;0.20;;;10.20;99.90;;;;;;5022602;28;20191;-86
2022/11/02 12:13:07;;;;;;;0.20;0.20;;;10.20;99.90;;;;;;5011427;28;20727;-88
2022/11/02 12:16:00;;;;;;;0.20;0.20;;;10.20;99.90;;;;;;5030731;28;20462;-89
2022/11/02 12:18:38;;;;;;;0.20;0.20;;;10.10;99.90;;;;;;5031367;28;20442;-88
2022/11/02 12:21:16;;;;;;;0.20;0.20;;;10.10;99.90;;;;;;5030380;28;20461;-91
2022/11/02 12:24:03;;;;;;;0.20;0.20;;;10.00;99.90;;;;;;5009157;28;21065;-90
2022/11/02 12:26:58;;;;;;;0.23;0.23;;;10.00;99.90;;;;;;5013677;28;20446;-87
2022/11/02 12:29:45;;;;;;;0.20;0.20;;;9.90;99.90;;;;;;5007114;28;20501;-94
2022/11/02 12:32:45;;;;;;;0.30;0.30;;;9.90;99.90;;;;;;5024616;28;20433;-87
2022/11/02 12:35:33;;;;;;;0.20;0.20;;;9.90;99.90;;;;;;5030877;28;20453;-84
2022/11/02 12:38:11;;;;;;;0.30;0.30;;;9.90;99.90;;;;;;5035506;28;20440;-90
2022/11/02 12:41:09;;;;;;;0.30;0.30;;;9.80;99.90;;;;;;5032661;28;20446;-84
2022/11/02 12:43:45;;;;;;;0.20;0.20;;;9.80;99.90;;;;;;5028111;28;20456;-89
2022/11/02 12:46:38;;;;;;;0.27;0.27;;;9.80;99.90;;;;;;5024406;28;20442;-87
2022/11/02 12:49:31;;;;;;;0.20;0.20;;;9.90;99.90;;;;;;5018399;28;20473;-87
2022/11/02 12:52:26;;;;;;;0.20;0.20;;;9.90;99.90;;;;;;5027120;28;20581;-89
2022/11/02 12:55:02;;;;;;;0.20;0.20;;;9.90;99.90;;;;;;5008620;28;20452;-92
2022/11/02 12:57:32;;;;;;;0.20;0.20;;;10.00;99.90;;;;;;5020198;28;20494;-89
2022/11/02 13:00:01;;;;;;;0.20;0.20;;;10.00;99.90;;;;;;5031726;28;20434;-87
2022/11/02 13:02:33;;;;;;;0.20;0.20;;;10.00;99.90;;;;;;5014994;28;20489;-88
2022/11/02 13:05:11;;;;;;;0.20;0.20;;;10.00;99.90;;;;;;5032700;28;20419;-84
2022/11/02 13:07:55;;;;;;;0.20;0.20;;;10.00;99.90;;;;;;5036683;28;20462;-84
2022/11/02 13:10:26;;;;;;;0.20;0.20;;;10.00;99.90;;;;;;5016877;28;20477;-86
2022/11/02 13:12:57;;;;;;;0.20;0.20;;;10.00;99.90;;;;;;5030787;28;20430;-85
2022/11/02 13:15:26;;;;;;;0.20;0.20;;;10.10;99.90;;;;;;5020386;28;20446;-84
2022/11/02 13:18:05;;;;;;;0.20;0.20;;;10.00;99.90;;;;;;5031365;28;20430;-87
2022/11/02 13:20:41;;;;;;;0.20;0.20;;;10.00;99.90;;;;;;5017876;28;20469;-88
2022/11/02 13:23:26;;;;;;;0.20;0.20;;;10.00;99.90;;;;;;5032559;28;21255;-84
2022/11/02 13:26:08;;;;;;;0.20;0.20;;;10.00;99.90;;;;;;5032059;28;20445;-92